Portada
METAR-TAF:

METAR-TAF

Aeroports :

Kudat, Malàisia

latitud: 06-55N, longitud: 116-50E, altitud: 3 m

Observació

L'informe es va fer fa 45 minuts, a les 09:00 UTC
Vent 7 kt del Est/Nord-Est, variant entre Nord i Est/Sud-Est
Temperatura 30°C
Humitat 75%
Pressió 1009 hPa
Visibilitat 10 km o més
Escasses núvols a una alçada de 1500 ft
Escasses núvols a una alçada de 1600 ft, Cumulonimbus.
Cel ennuvolat a una alçada de 28000 ft

METAR: WBKT 080900Z 06007KT 010V120 9999 FEW015 FEW016CB BKN280 30/25 Q1009

Hora: 17:45 (09:45 UTC)


TAF: manca

Observacions i pronòstics meteorològics de més de 4000 aeroports (METAR i TAF).

Les estacions disponibles són els punts grocs i vermells al mapa.

Posi el ratolí al punt desitjat per veure el nom de l'estació.

Feu clic per veure les observacions i els pronòstics meteorològics.

Per canviar el mapa: feu clic els botons verds amb una creu de color negre per apropar; al botó verd amb un guió per allunyar la imatge; o en les fletxes verdes per a mapes adjacents.


METAR-TAF: